createdAt,value
2023-04-04T00:00:19.766Z,0.00
2023-04-04T00:01:19.799Z,0.00
2023-04-04T00:02:19.766Z,0.00
2023-04-04T00:03:19.894Z,0.00
2023-04-04T00:04:19.753Z,0.00
2023-04-04T00:05:19.715Z,0.00
2023-04-04T00:06:19.700Z,0.00
2023-04-04T00:07:19.690Z,0.00
2023-04-04T00:08:19.716Z,0.00
2023-04-04T00:09:19.673Z,0.00
2023-04-04T00:10:19.664Z,0.00
2023-04-04T00:11:19.683Z,0.00
2023-04-04T00:12:19.637Z,0.00
2023-04-04T00:13:19.738Z,0.00
2023-04-04T00:14:19.623Z,0.00
2023-04-04T00:15:19.602Z,0.00
2023-04-04T00:16:19.630Z,0.00
2023-04-04T00:17:19.591Z,0.00
2023-04-04T00:18:19.611Z,0.00
2023-04-04T00:19:19.582Z,0.00
2023-04-04T00:20:19.706Z,0.00
2023-04-04T00:21:19.546Z,0.00
2023-04-04T00:22:19.529Z,0.00
2023-04-04T00:23:19.537Z,0.00
2023-04-04T00:24:19.522Z,0.00
2023-04-04T00:25:20.477Z,0.00
2023-04-04T00:26:19.481Z,0.00
2023-04-04T00:27:19.510Z,0.00
2023-04-04T00:28:19.476Z,0.00
2023-04-04T00:29:19.471Z,0.00
2023-04-04T00:30:19.440Z,0.00
2023-04-04T00:31:19.472Z,0.00
2023-04-04T00:32:19.464Z,0.00
2023-04-04T00:33:19.450Z,0.00
2023-04-04T00:34:19.424Z,0.00
2023-04-04T00:35:19.397Z,0.00
2023-04-04T00:36:19.369Z,0.00
2023-04-04T00:37:19.374Z,0.00
2023-04-04T00:38:19.392Z,0.00
2023-04-04T00:39:19.344Z,0.00
2023-04-04T00:40:19.327Z,0.00
2023-04-04T00:41:19.329Z,0.00
2023-04-04T00:42:19.355Z,0.00
2023-04-04T00:43:19.382Z,0.00
2023-04-04T00:44:19.284Z,0.00
2023-04-04T00:45:19.277Z,0.00
2023-04-04T00:46:19.295Z,0.00
2023-04-04T00:47:19.260Z,0.00
2023-04-04T00:48:19.261Z,0.00
2023-04-04T00:49:19.236Z,0.00
2023-04-04T00:50:19.221Z,0.00
2023-04-04T00:51:19.264Z,0.00
2023-04-04T00:52:19.205Z,0.00
2023-04-04T00:53:21.984Z,0.00
2023-04-04T00:54:19.177Z,0.00
2023-04-04T00:55:19.161Z,0.00
2023-04-04T00:56:19.167Z,0.00
2023-04-04T00:57:19.225Z,0.00
2023-04-04T00:58:19.164Z,0.00
2023-04-04T00:59:19.153Z,0.00
2023-04-04T01:00:19.172Z,0.00
2023-04-04T01:01:19.141Z,0.00
2023-04-04T01:02:19.102Z,0.00
2023-04-04T01:03:19.074Z,0.00
2023-04-04T01:04:19.086Z,0.00
2023-04-04T01:05:19.089Z,0.00
2023-04-04T01:06:19.070Z,0.00
2023-04-04T01:07:19.050Z,0.00
2023-04-04T01:08:19.020Z,0.00
2023-04-04T01:09:19.008Z,0.00
2023-04-04T01:10:18.998Z,0.00
2023-04-04T01:11:18.986Z,0.00
2023-04-04T01:12:18.986Z,0.00
2023-04-04T01:13:18.993Z,0.00
2023-04-04T01:14:18.950Z,0.00
2023-04-04T01:15:18.968Z,0.00
2023-04-04T01:16:18.998Z,0.00
2023-04-04T01:17:18.961Z,0.00
2023-04-04T01:18:18.928Z,0.00
2023-04-04T01:19:18.897Z,0.00
2023-04-04T01:20:18.894Z,0.00
2023-04-04T01:21:18.871Z,0.00
2023-04-04T01:22:18.889Z,0.00
2023-04-04T01:23:18.850Z,0.00
2023-04-04T01:24:18.876Z,0.00
2023-04-04T01:25:18.829Z,0.00
2023-04-04T01:26:18.826Z,0.00
2023-04-04T01:27:18.807Z,0.00
2023-04-04T01:28:18.819Z,0.00
2023-04-04T01:29:18.812Z,0.00
2023-04-04T01:30:18.773Z,0.00
2023-04-04T01:31:18.874Z,0.00
2023-04-04T01:32:18.782Z,0.00
2023-04-04T01:33:18.755Z,0.00
2023-04-04T01:34:18.734Z,0.00
2023-04-04T01:35:18.721Z,0.00
2023-04-04T01:36:18.746Z,0.00
2023-04-04T01:37:18.702Z,0.00
2023-04-04T01:38:18.725Z,0.00
2023-04-04T01:39:18.685Z,0.00
2023-04-04T01:40:18.667Z,0.00
2023-04-04T01:41:18.689Z,0.00
2023-04-04T01:42:18.649Z,0.00
2023-04-04T01:43:18.638Z,0.00
2023-04-04T01:44:18.623Z,0.00
2023-04-04T01:45:18.620Z,0.00
2023-04-04T01:46:18.650Z,0.00
2023-04-04T01:47:18.623Z,0.00
2023-04-04T01:48:18.582Z,0.00
2023-04-04T01:49:18.578Z,0.00
2023-04-04T01:50:18.617Z,0.00
2023-04-04T01:51:18.550Z,0.00
2023-04-04T01:52:18.561Z,0.00
2023-04-04T01:53:18.547Z,0.00
2023-04-04T01:54:18.532Z,0.00
2023-04-04T01:55:18.616Z,0.00
2023-04-04T01:56:18.519Z,0.00
2023-04-04T01:57:18.485Z,0.00
2023-04-04T01:58:18.472Z,0.00
2023-04-04T01:59:18.505Z,0.00
2023-04-04T02:00:18.472Z,0.00
2023-04-04T02:01:18.455Z,0.00
2023-04-04T02:02:18.465Z,0.00
2023-04-04T02:03:18.437Z,0.00
2023-04-04T02:04:18.487Z,0.00
2023-04-04T02:05:18.413Z,0.00
2023-04-04T02:06:18.409Z,0.00
2023-04-04T02:07:18.402Z,0.00
2023-04-04T02:08:18.374Z,0.00
2023-04-04T02:09:18.367Z,0.00
2023-04-04T02:10:18.346Z,0.00
2023-04-04T02:11:18.334Z,0.00
2023-04-04T02:12:18.337Z,0.00
2023-04-04T02:13:18.321Z,0.00
2023-04-04T02:14:18.307Z,0.00
2023-04-04T02:15:18.307Z,0.00
2023-04-04T02:16:18.321Z,0.00
2023-04-04T02:17:18.266Z,0.00
2023-04-04T02:18:18.259Z,0.00
2023-04-04T02:19:18.275Z,0.00
2023-04-04T02:20:18.245Z,0.00
2023-04-04T02:21:18.223Z,0.00
2023-04-04T02:22:18.242Z,0.00
2023-04-04T02:23:18.206Z,0.00
2023-04-04T02:24:18.222Z,0.00
2023-04-04T02:25:18.208Z,0.00
2023-04-04T02:26:18.325Z,0.00
2023-04-04T02:27:18.164Z,0.00
2023-04-04T02:28:18.192Z,0.00
2023-04-04T02:29:18.153Z,0.00
2023-04-04T02:30:18.144Z,0.00
2023-04-04T02:31:18.172Z,0.00
2023-04-04T02:32:18.107Z,0.00
2023-04-04T02:33:18.114Z,0.00
2023-04-04T02:34:18.100Z,0.00
2023-04-04T02:35:18.098Z,0.00
2023-04-04T02:36:18.104Z,0.00
2023-04-04T02:37:18.101Z,0.00
2023-04-04T02:38:19.001Z,0.00
2023-04-04T02:39:18.043Z,0.00
2023-04-04T02:40:18.025Z,0.00
2023-04-04T02:41:18.034Z,0.00
2023-04-04T02:42:18.014Z,0.00
2023-04-04T02:43:18.538Z,0.00
2023-04-04T02:44:17.980Z,0.00
2023-04-04T02:45:17.971Z,0.00
2023-04-04T02:46:21.550Z,0.00
2023-04-04T02:47:17.961Z,0.00
2023-04-04T02:48:17.939Z,0.00
2023-04-04T02:49:17.934Z,0.00
2023-04-04T02:50:17.913Z,0.00
2023-04-04T02:51:17.924Z,0.00
2023-04-04T02:52:17.912Z,0.00
2023-04-04T02:53:17.886Z,0.00
2023-04-04T02:54:17.877Z,0.00
2023-04-04T02:55:17.873Z,0.00
2023-04-04T02:56:17.856Z,0.00
2023-04-04T02:57:17.870Z,0.00
2023-04-04T02:58:17.832Z,0.00
2023-04-04T02:59:17.837Z,0.00
2023-04-04T03:00:17.809Z,0.00
2023-04-04T03:01:17.894Z,0.00
2023-04-04T03:02:17.951Z,0.00
2023-04-04T03:03:17.884Z,0.00
2023-04-04T03:04:17.774Z,0.00
2023-04-04T03:05:17.759Z,0.00
2023-04-04T03:06:17.742Z,0.00
2023-04-04T03:07:17.766Z,0.00
2023-04-04T03:08:17.725Z,0.00
2023-04-04T03:09:17.720Z,0.00
2023-04-04T03:10:17.703Z,0.00
2023-04-04T03:11:17.702Z,0.00
2023-04-04T03:12:17.698Z,0.00
2023-04-04T03:13:17.672Z,0.00
2023-04-04T03:14:17.732Z,0.00
2023-04-04T03:15:17.660Z,0.00
2023-04-04T03:16:17.720Z,0.00
2023-04-04T03:17:17.646Z,0.00
2023-04-04T03:18:17.636Z,0.00
2023-04-04T03:19:17.613Z,0.00
2023-04-04T03:20:17.617Z,0.00
2023-04-04T03:21:17.605Z,0.00
2023-04-04T03:22:17.602Z,0.00
2023-04-04T03:23:17.588Z,0.00
2023-04-04T03:24:17.567Z,0.00
2023-04-04T03:25:17.573Z,0.00
2023-04-04T03:26:17.536Z,0.00
2023-04-04T03:27:17.538Z,0.00
2023-04-04T03:28:17.512Z,0.00
2023-04-04T03:29:17.514Z,0.00
2023-04-04T03:30:17.492Z,0.00
2023-04-04T03:31:17.478Z,0.00
2023-04-04T03:32:17.470Z,0.00
2023-04-04T03:33:17.621Z,0.00
2023-04-04T03:34:17.445Z,0.00
2023-04-04T03:35:17.463Z,0.00
2023-04-04T03:36:17.432Z,0.00
2023-04-04T03:37:17.427Z,0.00
2023-04-04T03:38:17.400Z,0.00
2023-04-04T03:39:17.408Z,0.00
2023-04-04T03:40:17.379Z,0.00
2023-04-04T03:41:17.379Z,0.00
2023-04-04T03:42:17.378Z,0.00
2023-04-04T03:43:17.368Z,0.00
2023-04-04T03:44:17.341Z,0.00
2023-04-04T03:45:17.347Z,0.00
2023-04-04T03:46:17.348Z,0.00
2023-04-04T03:47:17.339Z,0.00
2023-04-04T03:48:17.329Z,0.00
2023-04-04T03:49:17.282Z,0.00
2023-04-04T03:50:17.275Z,0.00
2023-04-04T03:51:17.270Z,0.00
2023-04-04T03:52:17.254Z,0.00
2023-04-04T03:53:17.241Z,0.00
2023-04-04T03:54:17.249Z,0.00
2023-04-04T03:55:17.294Z,0.00
2023-04-04T03:56:17.208Z,0.00
2023-04-04T03:57:17.196Z,0.00
2023-04-04T03:58:17.189Z,0.00
2023-04-04T03:59:17.241Z,0.00
2023-04-04T04:00:17.172Z,0.00
2023-04-04T04:01:17.152Z,4.00
2023-04-04T04:02:17.149Z,4.00
2023-04-04T04:03:17.454Z,0.00
2023-04-04T04:04:17.198Z,0.00
2023-04-04T04:05:17.110Z,4.00
2023-04-04T04:06:17.100Z,0.00
2023-04-04T04:07:17.089Z,4.00
2023-04-04T04:08:17.075Z,4.00
2023-04-04T04:09:17.078Z,4.00
2023-04-04T04:10:17.122Z,4.00
2023-04-04T04:11:17.226Z,8.00
2023-04-04T04:12:17.034Z,8.00
2023-04-04T04:13:17.026Z,8.00
2023-04-04T04:14:17.025Z,12.00
2023-04-04T04:15:17.005Z,16.00
2023-04-04T04:16:17.055Z,20.00
2023-04-04T04:17:16.981Z,20.00
2023-04-04T04:18:16.971Z,24.00
2023-04-04T04:19:16.977Z,28.00
2023-04-04T04:20:16.948Z,32.00
2023-04-04T04:21:16.941Z,40.00
2023-04-04T04:22:16.929Z,48.00
2023-04-04T04:23:16.917Z,56.00
2023-04-04T04:24:16.940Z,60.00
2023-04-04T04:25:16.904Z,72.00
2023-04-04T04:26:16.892Z,80.00
2023-04-04T04:27:16.945Z,92.00
2023-04-04T04:28:16.867Z,104.00
2023-04-04T04:29:16.852Z,120.00
2023-04-04T04:30:16.948Z,132.00
2023-04-04T04:31:16.869Z,152.00
2023-04-04T04:32:16.824Z,168.00
2023-04-04T04:33:16.810Z,184.00
2023-04-04T04:34:16.819Z,204.00
2023-04-04T04:35:16.809Z,224.00
2023-04-04T04:36:16.831Z,244.00
2023-04-04T04:37:16.852Z,272.00
2023-04-04T04:38:16.762Z,296.00
2023-04-04T04:39:16.769Z,320.00
2023-04-04T04:40:16.742Z,348.00
2023-04-04T04:41:16.741Z,376.00
2023-04-04T04:42:16.758Z,404.00
2023-04-04T04:43:16.723Z,432.00
2023-04-04T04:44:16.713Z,464.00
2023-04-04T04:45:16.703Z,496.00
2023-04-04T04:46:16.705Z,528.00
2023-04-04T04:47:16.665Z,564.00
2023-04-04T04:48:16.656Z,596.00
2023-04-04T04:49:16.842Z,632.00
2023-04-04T04:50:16.633Z,664.00
2023-04-04T04:51:16.623Z,696.00
2023-04-04T04:52:16.612Z,736.00
2023-04-04T04:53:16.618Z,768.00
2023-04-04T04:54:16.614Z,808.00
2023-04-04T04:55:16.582Z,840.00
2023-04-04T04:56:16.706Z,876.00
2023-04-04T04:57:16.558Z,916.00
2023-04-04T04:58:16.556Z,952.00
2023-04-04T04:59:16.617Z,988.00
2023-04-04T05:00:16.530Z,1024.00
2023-04-04T05:01:16.574Z,1064.00
2023-04-04T05:02:16.522Z,1100.00
2023-04-04T05:03:16.543Z,1132.00
2023-04-04T05:04:16.488Z,1176.00
2023-04-04T05:05:16.485Z,1208.00
2023-04-04T05:06:16.474Z,1244.00
2023-04-04T05:07:16.451Z,1284.00
2023-04-04T05:08:16.483Z,1316.00
2023-04-04T05:09:16.429Z,1356.00
2023-04-04T05:10:16.447Z,1388.00
2023-04-04T05:11:16.423Z,1424.00
2023-04-04T05:12:16.403Z,1460.00
2023-04-04T05:13:16.432Z,1500.00
2023-04-04T05:14:16.382Z,1560.00
2023-04-04T05:15:16.404Z,1636.00
2023-04-04T05:16:16.416Z,1704.00
2023-04-04T05:17:16.357Z,1780.00
2023-04-04T05:18:16.341Z,1860.00
2023-04-04T05:19:16.459Z,1944.00
2023-04-04T05:20:16.340Z,2028.00
2023-04-04T05:21:16.318Z,2116.00
2023-04-04T05:22:16.292Z,2208.00
2023-04-04T05:23:16.284Z,2300.00
2023-04-04T05:24:16.285Z,2400.00
2023-04-04T05:25:16.258Z,2500.00
2023-04-04T05:26:16.255Z,2596.00
2023-04-04T05:27:16.240Z,2704.00
2023-04-04T05:28:16.248Z,2804.00
2023-04-04T05:29:16.236Z,2916.00
2023-04-04T05:30:16.289Z,3032.00
2023-04-04T05:31:16.208Z,3136.00
2023-04-04T05:32:16.194Z,3256.00
2023-04-04T05:33:16.173Z,3372.00
2023-04-04T05:34:16.176Z,3488.00
2023-04-04T05:35:16.161Z,3608.00
2023-04-04T05:36:16.165Z,3732.00
2023-04-04T05:37:16.128Z,3856.00
2023-04-04T05:38:16.121Z,3984.00
2023-04-04T05:39:16.127Z,4108.00
2023-04-04T05:40:16.102Z,4240.00
2023-04-04T05:41:16.085Z,4392.00
2023-04-04T05:42:16.077Z,4516.00
2023-04-04T05:43:16.062Z,4656.00
2023-04-04T05:44:16.141Z,4812.00
2023-04-04T05:45:16.113Z,4936.00
2023-04-04T05:46:16.076Z,5088.00
2023-04-04T05:47:16.037Z,5220.00
2023-04-04T05:48:16.011Z,5372.00
2023-04-04T05:49:16.015Z,5512.00
2023-04-04T05:50:15.991Z,5656.00
2023-04-04T05:51:15.975Z,5792.00
2023-04-04T05:52:15.966Z,5952.00
2023-04-04T05:53:15.954Z,6088.00
2023-04-04T05:54:15.961Z,6224.00
2023-04-04T05:55:15.950Z,6396.00
2023-04-04T05:56:16.003Z,6532.00
2023-04-04T05:57:15.921Z,6696.00
2023-04-04T05:58:16.016Z,6852.00
2023-04-04T05:59:15.913Z,7012.00
2023-04-04T06:00:15.908Z,7168.00
2023-04-04T06:01:15.955Z,7336.00
2023-04-04T06:02:15.905Z,7500.00
2023-04-04T06:03:15.981Z,7664.00
2023-04-04T06:04:15.837Z,7848.00
2023-04-04T06:05:15.825Z,8024.00
2023-04-04T06:06:15.857Z,8192.00
2023-04-04T06:07:15.800Z,8396.00
2023-04-04T06:08:15.792Z,8588.00
2023-04-04T06:09:15.840Z,8784.00
2023-04-04T06:10:15.775Z,9016.00
2023-04-04T06:11:15.757Z,9256.00
2023-04-04T06:12:15.754Z,9592.00
2023-04-04T06:13:15.757Z,9992.00
2023-04-04T06:14:15.729Z,10444.00
2023-04-04T06:15:15.727Z,11036.00
2023-04-04T06:16:15.773Z,11892.00
2023-04-04T06:17:15.689Z,13056.00
2023-04-04T06:18:15.699Z,14752.00
2023-04-04T06:19:15.725Z,16224.00
2023-04-04T06:20:15.674Z,17408.00
2023-04-04T06:21:15.645Z,18368.00
2023-04-04T06:22:15.646Z,19072.00
2023-04-04T06:23:15.646Z,19712.00
2023-04-04T06:24:15.634Z,20128.00
2023-04-04T06:25:15.613Z,20608.00
2023-04-04T06:26:15.592Z,20992.00
2023-04-04T06:27:15.578Z,21440.00
2023-04-04T06:28:15.585Z,22048.00
2023-04-04T06:29:15.631Z,22912.00
2023-04-04T06:30:15.549Z,23552.00
2023-04-04T06:31:15.541Z,24480.00
2023-04-04T06:32:15.538Z,24864.00
2023-04-04T06:33:15.525Z,25312.00
2023-04-04T06:34:15.500Z,25920.00
2023-04-04T06:35:16.339Z,26336.00
2023-04-04T06:36:15.577Z,26560.00
2023-04-04T06:37:15.466Z,27232.00
2023-04-04T06:38:15.471Z,27872.00
2023-04-04T06:39:15.468Z,28192.00
2023-04-04T06:40:15.437Z,28768.00
2023-04-04T06:41:15.421Z,29472.00
2023-04-04T06:42:15.428Z,30048.00
2023-04-04T06:43:15.405Z,31328.00
2023-04-04T06:44:15.397Z,33216.00
2023-04-04T06:45:15.384Z,34720.00
2023-04-04T06:46:15.390Z,35360.00
2023-04-04T06:47:15.424Z,34400.00
2023-04-04T06:48:15.342Z,32224.00
2023-04-04T06:49:15.332Z,31136.00
2023-04-04T06:50:15.322Z,30944.00
2023-04-04T06:51:15.332Z,31232.00
2023-04-04T06:52:15.299Z,31552.00
2023-04-04T06:53:15.310Z,32000.00
2023-04-04T06:54:15.280Z,32352.00
2023-04-04T06:55:15.267Z,32736.00
2023-04-04T06:56:15.393Z,32864.00
2023-04-04T06:57:16.034Z,32416.00
2023-04-04T06:58:15.593Z,33184.00
2023-04-04T06:59:15.317Z,34336.00
2023-04-04T07:00:15.237Z,34880.00
2023-04-04T07:01:15.264Z,35328.00
2023-04-04T07:02:15.257Z,35744.00
2023-04-04T07:03:16.161Z,36800.00
2023-04-04T07:04:15.168Z,38336.00
2023-04-04T07:05:15.155Z,39584.00
2023-04-04T07:06:15.154Z,40128.00
2023-04-04T07:07:15.173Z,40608.00
2023-04-04T07:08:15.128Z,40864.00
2023-04-04T07:09:25.983Z,41344.00
2023-04-04T07:10:16.104Z,42048.00
2023-04-04T07:11:15.112Z,42592.00
2023-04-04T07:12:15.138Z,43072.00
2023-04-04T07:13:15.064Z,43616.00
2023-04-04T07:14:15.056Z,44192.00
2023-04-04T07:15:15.062Z,44832.00
2023-04-04T07:16:15.046Z,45088.00
2023-04-04T07:17:24.196Z,45472.00
2023-04-04T07:18:16.348Z,46080.00
2023-04-04T07:19:15.048Z,46528.00
2023-04-04T07:20:15.013Z,46720.00
2023-04-04T07:21:15.005Z,47168.00
2023-04-04T07:22:14.977Z,47680.00
2023-04-04T07:23:14.977Z,47936.00
2023-04-04T07:24:14.942Z,48352.00
2023-04-04T07:25:14.933Z,48320.00
2023-04-04T07:26:14.938Z,49376.00
2023-04-04T07:27:15.584Z,50560.00
2023-04-04T07:28:14.898Z,51424.00
2023-04-04T07:29:14.906Z,51552.00
2023-04-04T07:30:14.879Z,51904.00
2023-04-04T07:31:14.897Z,52288.00
2023-04-04T07:32:14.874Z,52736.00
2023-04-04T07:33:14.841Z,53536.00
2023-04-04T07:34:14.879Z,53504.00
2023-04-04T07:35:14.824Z,54048.00
2023-04-04T07:36:14.867Z,55488.00
2023-04-04T07:37:14.796Z,56384.00
2023-04-04T07:38:14.791Z,57024.00
2023-04-04T07:39:14.795Z,57216.00
2023-04-04T07:40:14.770Z,57600.00
2023-04-04T07:41:15.074Z,58272.00
2023-04-04T07:42:14.742Z,59776.00
2023-04-04T07:43:14.730Z,57088.00
2023-04-04T07:44:14.733Z,61568.00
2023-04-04T07:45:14.714Z,61376.00
2023-04-04T07:46:14.716Z,61728.00
2023-04-04T07:47:14.696Z,61376.00
2023-04-04T07:48:14.678Z,61952.00
2023-04-04T07:49:14.666Z,62240.00
2023-04-04T07:50:14.655Z,63008.00
2023-04-04T07:51:14.635Z,63744.00
2023-04-04T07:52:14.644Z,64800.00
2023-04-04T07:53:14.614Z,65664.00
2023-04-04T07:54:14.606Z,66432.00
2023-04-04T07:55:16.681Z,20192.00
2023-04-04T07:56:14.583Z,56672.00
2023-04-04T07:57:14.579Z,30272.00
2023-04-04T07:58:14.571Z,65920.00
2023-04-04T07:59:14.650Z,68672.00
2023-04-04T08:00:14.545Z,70048.00
2023-04-04T08:01:14.525Z,69376.00
2023-04-04T08:02:14.548Z,68864.00
2023-04-04T08:03:14.649Z,68960.00
2023-04-04T08:04:14.506Z,69152.00
2023-04-04T08:05:14.491Z,69696.00
2023-04-04T08:06:14.478Z,69472.00
2023-04-04T08:07:14.481Z,69952.00
2023-04-04T08:08:14.443Z,70464.00
2023-04-04T08:09:14.448Z,70048.00
2023-04-04T08:10:14.424Z,71264.00
2023-04-04T08:11:14.434Z,71040.00
2023-04-04T08:12:14.410Z,72064.00
2023-04-04T08:13:14.413Z,73280.00
2023-04-04T08:14:14.396Z,73888.00
2023-04-04T08:15:14.375Z,74240.00
2023-04-04T08:16:14.378Z,74816.00
2023-04-04T08:17:14.367Z,75392.00
2023-04-04T08:18:14.339Z,75200.00
2023-04-04T08:19:14.332Z,76192.00
2023-04-04T08:20:14.332Z,76000.00
2023-04-04T08:21:14.317Z,76032.00
2023-04-04T08:22:14.312Z,75776.00
2023-04-04T08:23:14.285Z,76512.00
2023-04-04T08:24:14.277Z,76608.00
2023-04-04T08:25:14.261Z,77280.00
2023-04-04T08:26:14.252Z,77728.00
2023-04-04T08:27:14.276Z,77504.00
2023-04-04T08:28:14.258Z,78176.00
2023-04-04T08:29:14.215Z,78336.00
2023-04-04T08:30:14.253Z,54144.00
2023-04-04T08:31:14.267Z,79680.00
2023-04-04T08:32:14.197Z,79264.00
2023-04-04T08:33:14.237Z,79744.00
2023-04-04T08:34:14.162Z,57952.00
2023-04-04T08:35:14.169Z,81056.00
2023-04-04T08:36:14.156Z,81504.00
2023-04-04T08:37:14.144Z,82048.00
2023-04-04T08:38:14.231Z,83456.00
2023-04-04T08:39:14.114Z,82784.00
2023-04-04T08:40:14.151Z,82240.00
2023-04-04T08:41:14.106Z,82976.00
2023-04-04T08:42:14.075Z,82880.00
2023-04-04T08:43:14.125Z,83264.00
2023-04-04T08:44:14.051Z,83872.00
2023-04-04T08:45:14.044Z,83424.00
2023-04-04T08:46:14.054Z,83936.00
2023-04-04T08:47:14.039Z,83456.00
2023-04-04T08:48:14.012Z,84064.00
2023-04-04T08:49:14.037Z,84768.00
2023-04-04T08:50:13.994Z,85888.00
2023-04-04T08:51:13.988Z,86848.00
2023-04-04T08:52:14.549Z,86912.00
2023-04-04T08:53:13.978Z,87744.00
2023-04-04T08:54:13.950Z,87232.00
2023-04-04T08:55:13.962Z,87200.00
2023-04-04T08:56:13.959Z,87584.00
2023-04-04T08:57:13.922Z,89376.00
2023-04-04T08:58:13.932Z,89920.00
2023-04-04T08:59:14.001Z,89760.00
2023-04-04T09:00:14.227Z,92800.00
2023-04-04T09:01:13.913Z,94272.00
2023-04-04T09:02:13.925Z,91680.00
2023-04-04T09:03:14.176Z,91072.00
2023-04-04T09:04:13.853Z,89696.00
2023-04-04T09:05:13.838Z,90656.00
2023-04-04T09:06:13.834Z,93536.00
2023-04-04T09:07:13.822Z,11844.00
2023-04-04T09:08:13.805Z,94656.00
2023-04-04T09:09:13.815Z,92320.00
2023-04-04T09:10:13.792Z,92864.00
2023-04-04T09:11:14.592Z,91936.00
2023-04-04T09:12:13.759Z,91040.00
2023-04-04T09:13:16.529Z,90048.00
2023-04-04T09:14:13.776Z,91072.00
2023-04-04T09:15:13.788Z,92640.00
2023-04-04T09:16:13.786Z,92352.00
2023-04-04T09:17:13.710Z,92576.00
2023-04-04T09:18:13.715Z,94656.00
2023-04-04T09:19:13.689Z,96096.00
2023-04-04T09:20:13.690Z,95616.00
2023-04-04T09:21:13.668Z,100032.00
2023-04-04T09:22:13.653Z,99456.00
2023-04-04T09:23:13.665Z,97440.00
2023-04-04T09:24:13.650Z,95040.00
2023-04-04T09:25:13.625Z,95232.00
2023-04-04T09:26:13.629Z,95616.00
2023-04-04T09:27:13.608Z,98624.00
2023-04-04T09:28:13.590Z,99648.00
2023-04-04T09:29:13.581Z,101792.00
2023-04-04T09:30:13.569Z,101184.00
2023-04-04T09:31:13.614Z,102208.00
2023-04-04T09:32:13.572Z,100736.00
2023-04-04T09:33:13.539Z,97664.00
2023-04-04T09:34:13.527Z,99520.00
2023-04-04T09:35:13.537Z,101344.00
2023-04-04T09:36:13.610Z,103136.00
2023-04-04T09:37:13.502Z,103424.00
2023-04-04T09:38:13.486Z,104480.00
2023-04-04T09:39:13.484Z,25248.00
2023-04-04T09:40:13.474Z,25344.00
2023-04-04T09:41:13.472Z,64384.00
2023-04-04T09:42:13.469Z,102432.00
2023-04-04T09:43:13.436Z,112128.00
2023-04-04T09:44:13.419Z,88544.00
2023-04-04T09:45:31.583Z,45856.00
2023-04-04T09:46:14.419Z,31520.00
2023-04-04T09:47:18.320Z,111520.00
2023-04-04T09:48:14.460Z,26656.00
2023-04-04T09:49:13.652Z,34240.00
2023-04-04T09:50:13.376Z,13624.00
2023-04-04T09:51:13.349Z,12212.00
2023-04-04T09:52:13.380Z,11856.00
2023-04-04T09:53:13.335Z,11620.00
2023-04-04T09:54:26.197Z,11628.00
2023-04-04T09:55:14.328Z,12672.00
2023-04-04T09:56:13.305Z,14852.00
2023-04-04T09:57:13.289Z,17536.00
2023-04-04T09:58:13.293Z,18304.00
2023-04-04T09:59:13.772Z,17600.00
2023-04-04T10:00:13.300Z,16160.00
2023-04-04T10:01:13.257Z,15232.00
2023-04-04T10:02:13.292Z,14768.00
2023-04-04T10:03:13.257Z,13856.00
2023-04-04T10:04:13.254Z,13612.00
2023-04-04T10:05:13.200Z,13316.00
2023-04-04T10:06:13.211Z,12752.00
2023-04-04T10:07:13.179Z,12228.00
2023-04-04T10:08:13.182Z,11476.00
2023-04-04T10:09:13.190Z,11660.00
2023-04-04T10:10:13.144Z,13404.00
2023-04-04T10:11:13.293Z,15640.00
2023-04-04T10:12:14.118Z,16800.00
2023-04-04T10:13:13.109Z,17440.00
2023-04-04T10:14:13.132Z,20320.00
2023-04-04T10:15:13.104Z,71584.00
2023-04-04T10:16:13.222Z,113792.00
2023-04-04T10:17:13.073Z,115744.00
2023-04-04T10:18:13.055Z,116256.00
2023-04-04T10:19:13.069Z,116000.00
2023-04-04T10:20:13.118Z,96960.00
2023-04-04T10:21:15.870Z,25472.00
2023-04-04T10:22:13.009Z,106752.00
2023-04-04T10:23:13.013Z,112064.00
2023-04-04T10:24:13.025Z,109312.00
2023-04-04T10:25:12.983Z,111872.00
2023-04-04T10:26:13.368Z,32576.00
2023-04-04T10:27:12.964Z,41568.00
2023-04-04T10:28:12.950Z,103936.00
2023-04-04T10:29:12.935Z,84672.00
2023-04-04T10:30:12.959Z,33056.00
2023-04-04T10:31:12.935Z,35552.00
2023-04-04T10:32:13.014Z,30368.00
2023-04-04T10:33:12.917Z,108960.00
2023-04-04T10:34:12.987Z,111872.00
2023-04-04T10:35:12.926Z,108672.00
2023-04-04T10:36:12.934Z,81184.00
2023-04-04T10:37:13.428Z,68000.00
2023-04-04T10:38:12.834Z,85024.00
2023-04-04T10:39:12.835Z,108672.00
2023-04-04T10:40:12.853Z,95712.00
2023-04-04T10:41:12.832Z,110016.00
2023-04-04T10:42:12.810Z,104576.00
2023-04-04T10:43:12.791Z,100416.00
2023-04-04T10:44:12.960Z,108960.00
2023-04-04T10:45:19.927Z,107040.00
2023-04-04T10:46:13.795Z,107392.00
2023-04-04T10:47:12.736Z,107936.00
2023-04-04T10:48:12.795Z,41632.00
2023-04-04T10:49:12.723Z,106016.00
2023-04-04T10:50:12.716Z,103776.00
2023-04-04T10:51:12.734Z,100832.00
2023-04-04T10:52:12.687Z,101056.00
2023-04-04T10:53:12.682Z,101248.00
2023-04-04T10:54:12.719Z,102240.00
2023-04-04T10:55:12.654Z,103072.00
2023-04-04T10:56:12.668Z,103264.00
2023-04-04T10:57:12.635Z,101792.00
2023-04-04T10:58:12.639Z,100992.00
2023-04-04T10:59:12.649Z,101696.00
2023-04-04T11:00:12.616Z,104192.00
2023-04-04T11:01:12.646Z,105280.00
2023-04-04T11:02:12.601Z,104960.00
2023-04-04T11:03:12.749Z,106400.00
2023-04-04T11:04:12.625Z,111776.00
2023-04-04T11:05:12.552Z,25120.00
2023-04-04T11:06:12.573Z,20832.00
2023-04-04T11:07:12.591Z,18080.00
2023-04-04T11:08:12.524Z,17408.00
2023-04-04T11:09:12.534Z,17728.00
2023-04-04T11:10:12.504Z,18176.00
2023-04-04T11:11:21.938Z,18592.00
2023-04-04T11:12:13.725Z,17888.00
2023-04-04T11:13:13.828Z,17152.00
2023-04-04T11:14:12.462Z,16416.00
2023-04-04T11:15:12.451Z,16272.00
2023-04-04T11:16:12.474Z,95232.00
2023-04-04T11:17:12.497Z,99392.00
2023-04-04T11:18:27.084Z,15752.00
2023-04-04T11:19:13.398Z,18592.00
2023-04-04T11:20:12.388Z,78976.00
2023-04-04T11:21:12.383Z,99008.00
2023-04-04T11:22:12.385Z,97760.00
2023-04-04T11:23:12.441Z,99744.00
2023-04-04T11:24:12.347Z,100576.00
2023-04-04T11:25:12.336Z,101856.00
2023-04-04T11:26:12.324Z,104544.00
2023-04-04T11:27:12.342Z,103904.00
2023-04-04T11:28:12.304Z,102976.00
2023-04-04T11:29:12.294Z,101536.00
2023-04-04T11:30:12.295Z,96768.00
2023-04-04T11:31:12.270Z,96384.00
2023-04-04T11:32:12.405Z,90112.00
2023-04-04T11:33:12.299Z,83104.00
2023-04-04T11:34:12.262Z,74560.00
2023-04-04T11:35:12.234Z,35616.00
2023-04-04T11:36:12.310Z,23744.00
2023-04-04T11:37:12.712Z,55264.00
2023-04-04T11:38:12.200Z,101664.00
2023-04-04T11:39:12.737Z,25600.00
2023-04-04T11:40:12.187Z,64000.00
2023-04-04T11:41:12.160Z,80224.00
2023-04-04T11:42:12.729Z,31552.00
2023-04-04T11:43:12.141Z,28864.00
2023-04-04T11:44:12.164Z,33824.00
2023-04-04T11:45:12.126Z,74272.00
2023-04-04T11:46:12.208Z,109632.00
2023-04-04T11:47:12.110Z,28864.00
2023-04-04T11:48:12.087Z,28416.00
2023-04-04T11:49:12.085Z,35872.00
2023-04-04T11:50:12.069Z,61920.00
2023-04-04T11:51:12.200Z,23872.00
2023-04-04T11:52:12.055Z,18496.00
2023-04-04T11:53:12.080Z,16736.00
2023-04-04T11:54:12.041Z,15300.00
2023-04-04T11:55:12.029Z,14760.00
2023-04-04T11:56:12.009Z,13900.00
2023-04-04T11:57:12.113Z,13576.00
2023-04-04T11:58:12.943Z,14712.00
2023-04-04T11:59:12.129Z,16640.00
2023-04-04T12:00:11.971Z,18688.00
2023-04-04T12:01:12.007Z,75264.00
2023-04-04T12:02:12.042Z,81824.00
2023-04-04T12:03:12.058Z,80480.00
2023-04-04T12:04:11.969Z,82112.00
2023-04-04T12:05:11.975Z,86016.00
2023-04-04T12:06:11.945Z,89088.00
2023-04-04T12:07:11.879Z,93856.00
2023-04-04T12:08:11.868Z,93216.00
2023-04-04T12:09:11.855Z,69376.00
2023-04-04T12:10:11.867Z,31456.00
2023-04-04T12:11:11.854Z,22464.00
2023-04-04T12:12:11.830Z,26080.00
2023-04-04T12:13:11.827Z,18912.00
2023-04-04T12:14:11.821Z,18304.00
2023-04-04T12:15:17.528Z,18976.00
2023-04-04T12:16:12.855Z,27616.00
2023-04-04T12:17:11.804Z,45728.00